SCIE

Carriel Sur Airport

Concepcion, Chile
TAF SCIE 181600Z 1818/1918 19004KT CAVOK TX10/1818Z TN01/1911Z TEMPO 1818/1900 SCT020 BKN035 BECMG 1902/1904 14004KT TEMPO 1910/1913 VRB02KT 3000 BR BKN003
Issued Valid From Valid To
Jul-18 @ 16:00 UTC
(6 hours ago)
Jul-18 @ 18:00 UTC
(4 hours ago)
Jul-19 @ 18:00 UTC
(in 20 hours)
Jul-18 @ 18:00 to Jul-19 @ 02:00
TAF SCIE 181600Z 1818/1918 19004KT CAVOK TX10/1818Z TN01/1911Z
Wind Visibility Clouds
190° at 4 knots 10,000+ meters
  • No significant clouds
Temporary Jul-18 @ 18:00 to Jul-19 @ 00:00
TEMPO 1818/1900 SCT020 BKN035
Clouds
  • Scattered at 2,000' AGL
  • Broken at 3,500' AGL
Becoming Jul-19 @ 02:00 to Jul-19 @ 18:00
BECMG 1902/1904 14004KT
Wind Visibility Clouds
140° at 4 knots 10,000+ meters
  • No significant clouds
Temporary Jul-19 @ 10:00 to Jul-19 @ 13:00
TEMPO 1910/1913 VRB02KT 3000 BR BKN003
Wind Visibility Clouds Conditions
Variable at 2 knots 2,993 meters
  • Broken at 300' AGL
  • Mist
TAF SCIE 181600Z 1818/1918 19004KT CAVOK TX10/1818Z TN01/1911Z TEMPO 1818/1900 SCT020 BKN035 BECMG 1902/1904 14004KT TEMPO 1910/1913 VRB02KT 3000 BR BKN003
Issued Jul-18 @ 16:00 UTC
(6 hours ago)
Valid From Jul-18 @ 18:00 UTC
(4 hours ago)
Valid To Jul-19 @ 18:00 UTC
(in 20 hours)
Jul-18 @ 18:00 - Jul-19 @ 02:00
Wind Visibility
190° at 4 knots 10,000+ meters
Clouds
  • No significant clouds
Temporary Jul-18 @ 18:00 - Jul-19 @ 00:00
Clouds
  • Scattered at 2,000' AGL
  • Broken at 3,500' AGL
Becoming Jul-19 @ 02:00 - Jul-19 @ 18:00
Wind Visibility
140° at 4 knots 10,000+ meters
Clouds
  • No significant clouds
Temporary Jul-19 @ 10:00 - Jul-19 @ 13:00
Wind Visibility
Variable at 2 knots 2,993 meters
Clouds
  • Broken at 300' AGL
Conditions
  • Mist